Airfield :
LOGIN :

Register | Disclaimer

   EN    FR    IT 

 










Legend :    VFR   Marginal VFR   IFR   Intensive IFR   Very Intensive IFR
Visi :
Ceiling :
>= 8 km
>= 3000ft
5 to 8 km
1000 to 3000 ft
1500m to 5 km
500 to 1000 ft
800 to 1500m
200 to 500 ft
< 800m
< 200 ft
Symbols :   Thunderstorms  Fog  Heavy snow  Heavy precipitations  Wind > 20 kt
SIGMETs :     Misc.  Thunderstorms  Icing  Turbulence  Mountain Waves  Volcanic Ashes






- Airport Elevation : 37 ft
- IATA code : OLB


LIEO - Olbia Costa Smeralda

CURRENT METAR :
  • 310750Z VRB03KT CAVOK 21/08 Q1016

EXPIRED METARs :
  • 310720Z 27004KT 240V320 CAVOK 21/09 Q1016
  • 310650Z 25003KT 210V290 CAVOK 19/10 Q1016
  • 310620Z VRB02KT CAVOK 17/11 Q1016
  • 310550Z 27005KT CAVOK 15/10 Q1016
  • 310520Z 26005KT CAVOK 13/10 Q1016

TAF TAF LIEO
Valid from the 31 at 06:00 until the 01 at 06:00 UTC


310500Z 3106/0106 VRB04KT CAVOK
BECMG 3108/3110 05012KT
BECMG 3118/3120 24005KT



MET'MAP, your aeronautical weather chart ! - Copyright ORBIFLY December 2007 - Disclaimer

ORBIFLY MET'MAP TEAM :

Programming & Development : Alexandra Zaïnal
Concept & original design : Baudouin d'Aumeries
Assistance for programming : Marc-Olivier Méhu
Technical & hardware support : Manuel Goepfert

Contact : metmap@orbifly.com




SOURCES & CREDITS :

   NOAA